Rucker, Arizona
Current Conditions -  °F | °C
As of 2:51 AM on Tuesday 27 Jan 2015 (Local Time) from KSAD Reporting Station
Overcast Overcast  
Wind Chill: 55°   Ceiling: 10000
Heat Index: 55°   Visibility: 10mi
Dew Point: 35°   Wind: 9mph
Humidity: 47%   Direction: 100°E
Pressure: 30.26"   Gusts: NA
Location:  32.5598°N, 110.08°W
Report Text: KSAD 270951Z AUTO 10008KT 10SM OVC100 13/02 A3026 RMK AO2 SLP221 T01280017
Loading
Personal Weather Stations






























Interactive Weather Map New forecast layout! Learn more

10-Day Weather Forecast

Advertisements
Track Severe Weather on mobile